Newport, Australia

4:46 PM AEST on November 19, 2017 (GMT +1000)
rosegarden | | Change Station

Elev 42 ft 27.22 °S, 153.11 °E | Updated 20 seconds ago

Partly Cloudy
Partly Cloudy
74.5 °F
Feels Like 76 °F
N
6.9
Wind Variable Wind from SSW
Gusts 10.5 mph

Today
High -- | Low -- °F
--% Chance of Precip.
Yesterday
High -- | Low -- °F
Precip. -- in
Pressure 30.04 in
Visibility 6.2 miles
Clouds Few 2500 ft
Scattered Clouds 7000 ft
Mostly Cloudy 18000 ft
Heat Index 76 °F
Dew Point 63 °F
Humidity 68%
Rainfall 0.04 in
Snow Depth Not available.
4:47 AM 6:19 PM
New Moon, 1% visible
METAR YBBN 190630Z 11007KT 9999 -SHRA FEW025 SCT070 BKN180 22/15 Q1017 INTER 0630/0800 3000 SHRA BKN015 BKN025
Pressure 30.04 in
Visibility 6.2 miles
Clouds Few 2500 ft
Scattered Clouds 7000 ft
Mostly Cloudy 18000 ft
Heat Index 76 °F
Dew Point 63 °F
Humidity 68%
Rainfall 0.04 in
Snow Depth Not available.
4:47 AM 6:19 PM
New Moon, 1% visible
METAR YBBN 190630Z 11007KT 9999 -SHRA FEW025 SCT070 BKN180 22/15 Q1017 INTER 0630/0800 3000 SHRA BKN015 BKN025

Get Severe Weather Alerts

Thanks for signing up!

Be on the lookout for a verification email in your inbox.

You'll start receiving the daily forecast at 6 AM.

×

10-Day Weather Forecast

×

Almanac

Astronomy

Nov. 19, 2017 Rise Set
Actual Time
Civil Twilight
Nautical Twilight
Astronomical Twilight
Moon
Length of Visible Light
Length of Day
Tomorrow will be .
, % of the Moon is Illuminated

Today's Extremes

Country Highs Country Lows

Community

WunderPhotos

Category 6

Welcome to Category 6. This is the collective home for Weather Underground's featured writeups by Dr. Jeff Masters (right), Bob Henson (left), Chris Burt, and other regular contributors.

Nearby

Air Quality

  Air Quality AQ Index Pollutant
Not available.

Snow Depth

Station Depth Elevation

Earthquake Activity

City Distance Mag. Time & Date
Minimum magnitude displayed is 2.5.

Coastal Water Temperatures

Place Temperature

Stations

Nearby Weather Stations

Station Location Temp. Windchill Dew Point Humidity Wind Precip. Elev Updated Type